Terminal Aerodrome Forecast
Issued by NWS North Platte, NE

Home | Current Version | Previous Version | Graphics & Text | Print | Product List | Glossary On
Versions: 1 2 3 4 5 6 7 8 9 10 11 12 13 14 15 16 17 18 19 20 21 22 23 24 25 26 27 28 29
000
FTUS43 KLBF 011000 AAA
TAFVTN
TAF AMD
KVTN 011004Z 0110/0206 VRB04KT P6SM SCT050
      TEMPO 0111/0114 5SM BR BKN030
     FM011400 30007KT P6SM SCT050 SCT100
     FM012200 34007KT P6SM OVC100 PROB30 0122/0202 5SM -SHRA OVC070=

USA.gov is the U.S. government's official web portal to all federal, state and local government web resources and services.